x

Ilm3 - 27 Miles Se Of Wrightsville Beach, Nc (41037) Weather Station

10:08 - Thu 11th Feb 2016 All times are EST. -5 hours from GMT.

  • Wind
    7mph, 11mph gusts
  • Sea Temp 62°f
  • Luft Temp 47°f
  • Sea Pressure 1024.1mb
  • Ilm3 - 27 Miles Se Of Wrightsville Beach, Nc
  • Ilm3 - 27 Miles Se Of Wrightsville Beach, Nc

More Historic Weather Station data

Upgrade to MSW Pro to gain access to the past 30 days of data for over 8000 Wavebouys and Weather Stations around the globe.

Join Pro

Comparision Forecast

View Surf forecast
   
Do 02/11 10:08 7 11 mph 1024.1mb 62f 47f
9:08 7 11 mph 1023.5mb 61f 46f
8:08 7 13 mph 1023.3mb 61f 47f
7:08 4 11 mph 1022.5mb 61f 45f
6:08 4 11 mph 1021.4mb 61f 44f
5:08 4 9 mph 1020.2mb 61f 44f
4:08 9 16 mph 1020mb 61f 44f
3:08 11 16 mph 1020.4mb 61f 44f
2:08 11 18 mph 1020.6mb 60f 43f
1:08 13 20 mph 1021.1mb 60f 41f
12:08 16 22 mph 1022.7mb 60f 41f
11:08 13 22 mph 1022.9mb 61f 40f
10:08 13 20 mph 1022.4mb 61f 37f
8:08 16 27 mph 1020.9mb 61f 37f
7:08 18 27 mph 1020.3mb 61f 37f
6:08 20 27 mph 1019.6mb 61f 37f
5:08 20 31 mph 1018.9mb 60f 37f
4:08 18 27 mph 1018.3mb 60f 38f
3:08 20 29 mph 1017.7mb 60f 38f
2:08 27 34 mph 1017.1mb 60f 40f
1:08 29 38 mph 1016.9mb 60f 41f
12:08 31 40 mph 1017mb 60f 41f
Mi 02/10 11:08 29 38 mph 1016.7mb 61f 41f
10:08 27 38 mph 1016mb 61f 42f
9:08 25 36 mph 1015.4mb 61f 41f
8:08 29 38 mph 1014.7mb 61f 41f
7:08 29 40 mph 1014.1mb 62f 41f
6:08 22 34 mph 1012.4mb - 42f
4:08 25 34 mph 1010.8mb 60f 43f
3:08 18 27 mph 1010.6mb 60f 42f
2:08 16 25 mph 1010.7mb 60f 41f
1:08 13 22 mph 1011.4mb 60f 41f
12:08 13 29 mph 1012.5mb 60f 39f
11:08 16 22 mph 1013.2mb 60f 40f
10:08 16 27 mph 1013.2mb 61f 40f
9:08 18 29 mph 1013mb - 40f
7:08 20 29 mph 1011.9mb 60f 40f
6:08 22 31 mph 1011.1mb 60f 39f
5:08 20 29 mph 1010.6mb 60f 40f
4:08 20 31 mph 1010mb 60f 40f
3:08 22 31 mph 1009.3mb 60f 40f
2:08 25 31 mph 1009.3mb 59f 42f
1:08 25 34 mph 1009.4mb 59f 43f
12:08 27 34 mph 1009.2mb 60f 44f
Di 02/09 11:08 25 34 mph 1009.1mb 60f 44f
10:08 27 36 mph 1008.9mb 60f 45f
9:08 27 36 mph 1008.8mb 60f 45f
8:08 29 43 mph 1008.1mb 60f 45f
7:08 29 38 mph 1007.4mb 61f 46f
6:08 27 38 mph 1005.7mb - 47f
4:08 27 36 mph 1004.7mb 60f 47f
3:08 27 36 mph 1004.2mb 60f 48f
2:08 27 38 mph 1004.3mb 60f 47f
1:08 25 38 mph 1004.5mb - 47f
11:08 27 36 mph 1005.3mb 60f 44f
10:08 25 36 mph 1005.6mb - 38f
8:08 25 34 mph 1005.2mb 61f 37f
7:08 22 27 mph 1003.5mb 61f 39f
6:08 20 27 mph 1003.2mb 61f 41f
5:08 20 29 mph 1002.3mb 61f 46f
4:08 22 31 mph 1001.8mb 61f 49f
3:08 22 29 mph 1001.8mb 61f 51f
2:08 20 29 mph 1002.3mb 60f 51f
1:08 20 38 mph 1001.9mb - 51f
Mo 02/08 11:08 16 22 mph 1003.2mb 60f 42f
10:08 18 25 mph 1004.3mb 60f 46f
9:08 27 36 mph 1005mb 60f 52f
8:08 27 38 mph 1004.6mb 60f 57f
7:08 25 36 mph 1004.9mb 61f 57f
6:08 22 31 mph 1005mb 61f 56f
5:08 25 34 mph 1005.2mb 61f 56f
4:08 22 31 mph 1006.1mb 61f 56f
3:08 18 25 mph 1008mb 60f 55f
2:08 13 22 mph 1007.9mb 60f 54f
1:08 7 13 mph 1008.4mb 60f 53f
12:08 4 9 mph 1010.4mb 60f 52f
11:08 7 11 mph 1009.8mb 59f 51f
10:08 11 18 mph 1009.7mb - 50f
8:08 18 25 mph 1010mb 60f 49f
7:08 18 27 mph 1009.1mb 60f 46f
6:08 22 29 mph 1008.6mb 60f 46f
5:08 22 31 mph 1007.6mb 60f 46f